Detall de PIREP

Printer-friendly versionPDF version

[2016/10/17 15:15:00]
Flight IATA:CT0002
Pilot Number:012
Company ICAO:CAT
Aircraft Type:B463/A
PAX:0
Aircraft Registration:CARGO
Departing Airport: LFML
Destination Airport: LFMP
Alternate Airport:LEBL
Online: VATSIM
Route:FJR
Flight Level:F150
No Slew and time accel
No pause
Crash detect
Detect pilot in Cockpit between each 30 and 45 minutes
15:15 Zero fuel Weight: 80402 Lbs, Fuel Weight: 13033 Lbs
15:15 VATSIM:LFML 171700Z AUTO 06005KT 010V130 CAVOK 16/13 Q1021 TEMPO 4000 TSRA BECMG 06015KT FEW010CB BKN020
15:15 VATSIM:LFMP 171700Z AUTO 05009KT 9999 BKN006 OVC096 18/16 Q1022 TEMPO VRB20G30KT SHRA BKN030TCU
15:35 Parking Brakes off
15:40 Take-off
15:40 Take off Weight: 92773 Lbs
15:40 Wind: 067º @ 005 Knots Heading: 131º
15:40 POS N43º 26´ 14´´ E005º 12´ 50´´
15:40 Gear Up: 154 Knots
15:40 Flaps:1 at 155 Knots
15:41 Flaps:0 at 164 Knots
15:47 TOC
15:47 Fuel Weight: 11291 Lb
15:55 Wind:271º@038 Knots Heading: 293º Ground Speed: 332 Knots Altitude 15285 ft
15:57 TOD
15:57 Fuel Weight: 10389 Lb
16:10 Wind:021º@007 Knots Heading: 139º Ground Speed: 232 Knots Altitude 3162 ft
16:14 Flaps:1 at 203 Knots
16:14 Flaps:2 at 157 Knots
16:14 Gear Down: 142 Knots
16:15 Flaps:3 at 134 Knots
16:15 Flaps:4 at 135 Knots
16:18 TouchDown:Rate -161 ft/min Speed: 120 Knots
16:19 VATSIM:LFMP 171800Z AUTO 05005KT CAVOK 17/16 Q1023 TEMPO VRB20G30KT SHRA BKN030TCU
16:19 Land
16:19 Wind:039º@006 Knots
16:19 Heading: 335º
16:19 Flight Duration: 00:39
16:19 Landing Weight: 89657 Lbs
16:19 POS N42º 45´ 07´´ E002º 51´ 48´´
16:21 Parking brakes on
16:21 Block to Block Duration: 00:46
16:21 Final Fuel: 9104 Lbls
16:21 Spent Fuel: 3928 Lbls
16:21 Flight Length: 162 NM
16:21 TOD Land Length: 85 NM

Exportar CSV

Powered by Drupal - Modified by Danger4k